Time;durP1;ratioP1;P1;durP2;ratioP2;P2;SDS_P1;SDS_P2;PMS_P1;PMS_P2;Temp;Humidity;BMP_temperature;BMP_pressure;BME280_temperature;BME280_humidity;BME280_pressure;Samples;Min_cycle;Max_cycle;Signal;HPM_P1;HPM_P2
2022/03/23 00:01:03;;;;;;;35.63;25.37;;;5.30;67.60;;;;;;5017988;28;20665;-86
2022/03/23 00:03:29;;;;;;;36.87;23.53;;;5.20;67.90;;;;;;5017814;28;20212;-87
2022/03/23 00:05:54;;;;;;;38.03;24.77;;;5.10;68.10;;;;;;5018031;28;20205;-87
2022/03/23 00:08:21;;;;;;;39.07;24.87;;;5.00;68.20;;;;;;5017782;28;20170;-87
2022/03/23 00:10:47;;;;;;;35.70;25.37;;;5.00;68.60;;;;;;5035472;28;20215;-87
2022/03/23 00:13:13;;;;;;;35.70;24.73;;;5.00;68.60;;;;;;5017622;28;20562;-87
2022/03/23 00:15:39;;;;;;;35.87;24.47;;;4.90;68.70;;;;;;5035290;28;20196;-87
2022/03/23 00:18:06;;;;;;;36.77;23.90;;;4.80;68.80;;;;;;5017644;28;20705;-87
2022/03/23 00:20:32;;;;;;;31.43;24.07;;;4.90;69.00;;;;;;5017394;28;20265;-86
2022/03/23 00:22:57;;;;;;;31.17;23.70;;;4.90;69.00;;;;;;5035217;28;20699;-87
2022/03/23 00:25:23;;;;;;;32.00;23.17;;;5.00;68.80;;;;;;5035119;28;20256;-87
2022/03/23 00:27:49;;;;;;;33.80;24.90;;;5.00;68.40;;;;;;5017399;28;20170;-87
2022/03/23 00:30:14;;;;;;;32.10;23.27;;;4.90;68.20;;;;;;5035037;28;20169;-86
2022/03/23 00:32:40;;;;;;;35.80;23.40;;;5.00;68.10;;;;;;5017330;28;20182;-87
2022/03/23 00:35:05;;;;;;;38.10;23.37;;;5.00;67.80;;;;;;5034969;28;20255;-86
2022/03/23 00:37:31;;;;;;;31.07;22.23;;;4.90;67.80;;;;;;5017301;28;20237;-87
2022/03/23 00:39:56;;;;;;;37.47;24.20;;;4.90;67.70;;;;;;5017251;28;20224;-86
2022/03/23 00:42:22;;;;;;;36.20;24.33;;;4.90;67.40;;;;;;5034821;28;20634;-87
2022/03/23 00:44:48;;;;;;;34.13;23.77;;;4.90;67.40;;;;;;5034977;28;20204;-86
2022/03/23 00:47:14;;;;;;;32.37;23.40;;;4.80;67.40;;;;;;5017345;28;20553;-87
2022/03/23 00:49:40;;;;;;;34.13;24.80;;;4.90;67.20;;;;;;5034692;28;20170;-87
2022/03/23 00:52:06;;;;;;;33.63;24.77;;;4.80;67.10;;;;;;5015871;28;20177;-86
2022/03/23 00:54:34;;;;;;;32.23;21.70;;;4.80;66.90;;;;;;5034605;28;20170;-87
2022/03/23 00:57:06;;;;;;;33.97;22.20;;;4.80;66.80;;;;;;5016814;28;20581;-87
2022/03/23 00:59:33;;;;;;;37.93;24.57;;;4.80;66.80;;;;;;5017718;28;20165;-87
2022/03/23 01:01:58;;;;;;;34.27;24.10;;;4.80;66.80;;;;;;5016573;28;20198;-87
2022/03/23 01:04:25;;;;;;;38.13;23.83;;;4.70;66.80;;;;;;5016710;28;20542;-87
2022/03/23 01:06:52;;;;;;;34.50;24.93;;;4.70;66.80;;;;;;5016603;28;20220;-87
2022/03/23 01:09:22;;;;;;;37.03;26.23;;;4.60;67.30;;;;;;5016548;28;20211;-87
2022/03/23 01:11:52;;;;;;;35.60;26.10;;;4.50;67.90;;;;;;5034553;28;20165;-86
2022/03/23 01:14:18;;;;;;;36.03;25.50;;;4.40;68.40;;;;;;5016538;28;20180;-86
2022/03/23 01:16:44;;;;;;;35.83;26.13;;;4.40;68.70;;;;;;5016496;28;20201;-87
2022/03/23 01:19:11;;;;;;;38.73;25.03;;;4.40;68.70;;;;;;5034148;28;20204;-86
2022/03/23 01:21:37;;;;;;;35.87;25.67;;;4.40;68.50;;;;;;5016300;28;20208;-87
2022/03/23 01:24:06;;;;;;;34.80;26.10;;;4.40;68.60;;;;;;5016312;28;20264;-87
2022/03/23 01:26:32;;;;;;;36.33;27.10;;;4.40;68.50;;;;;;5033900;28;20277;-87
2022/03/23 01:28:58;;;;;;;36.07;25.67;;;4.30;68.40;;;;;;5016304;28;20178;-87
2022/03/23 01:31:23;;;;;;;40.23;27.70;;;4.40;68.20;;;;;;5016188;28;20259;-86
2022/03/23 01:33:49;;;;;;;34.60;26.17;;;4.30;68.00;;;;;;5016161;28;20618;-86
2022/03/23 01:36:14;;;;;;;34.80;25.70;;;4.30;67.80;;;;;;5033666;28;20562;-86
2022/03/23 01:38:40;;;;;;;39.07;27.57;;;4.30;67.70;;;;;;5033713;28;20180;-86
2022/03/23 01:41:05;;;;;;;34.70;27.03;;;4.30;67.90;;;;;;5015994;28;20259;-86
2022/03/23 01:43:33;;;;;;;37.23;26.53;;;4.30;67.70;;;;;;5033660;28;20542;-87
2022/03/23 01:45:59;;;;;;;38.33;26.67;;;4.30;67.40;;;;;;5015896;28;20675;-87
2022/03/23 01:48:25;;;;;;;39.87;27.53;;;4.30;67.30;;;;;;5016194;28;20184;-86
2022/03/23 01:50:51;;;;;;;39.23;27.67;;;4.30;67.30;;;;;;5033483;28;20178;-87
2022/03/23 01:53:16;;;;;;;42.73;28.27;;;4.20;67.50;;;;;;5033551;28;20173;-87
2022/03/23 01:55:42;;;;;;;38.23;28.43;;;4.20;67.80;;;;;;5015759;28;20208;-87
2022/03/23 01:58:08;;;;;;;34.87;26.63;;;4.10;67.70;;;;;;5015723;28;20172;-87
2022/03/23 02:00:35;;;;;;;33.57;25.43;;;4.10;67.30;;;;;;5033360;28;20173;-87
2022/03/23 02:03:01;;;;;;;39.10;28.83;;;4.20;67.20;;;;;;5015277;28;20647;-87
2022/03/23 02:05:26;;;;;;;32.93;26.80;;;4.10;67.30;;;;;;5015442;28;20342;-86
2022/03/23 02:07:52;;;;;;;43.37;27.77;;;4.00;68.50;;;;;;5015628;28;20181;-87
2022/03/23 02:10:18;;;;;;;36.67;27.27;;;3.90;68.80;;;;;;5015649;28;20172;-87
2022/03/23 02:12:44;;;;;;;35.07;26.43;;;3.90;68.50;;;;;;5015545;28;20173;-87
2022/03/23 02:15:17;;;;;;;40.53;26.77;;;4.00;68.30;;;;;;5015482;28;20197;-86
2022/03/23 02:17:44;;;;;;;37.80;25.23;;;3.90;68.70;;;;;;5016292;28;20537;-86
2022/03/23 02:20:11;;;;;;;37.80;27.20;;;3.90;69.20;;;;;;5033164;28;20169;-87
2022/03/23 02:22:37;;;;;;;39.40;26.93;;;3.90;69.50;;;;;;5033001;28;20192;-86
2022/03/23 02:25:04;;;;;;;43.07;28.20;;;3.90;69.80;;;;;;5032998;28;20618;-86
2022/03/23 02:27:30;;;;;;;39.93;27.37;;;3.80;69.90;;;;;;5033072;28;20168;-87
2022/03/23 02:29:57;;;;;;;34.23;26.40;;;3.80;69.80;;;;;;5015368;28;20176;-87
2022/03/23 02:32:24;;;;;;;36.83;26.50;;;3.80;69.80;;;;;;5015254;28;20177;-86
2022/03/23 02:34:49;;;;;;;38.10;27.27;;;3.70;70.00;;;;;;5032888;28;20196;-86
2022/03/23 02:37:16;;;;;;;38.00;27.23;;;3.70;69.90;;;;;;5032932;28;20177;-87
2022/03/23 02:39:42;;;;;;;36.47;26.67;;;3.70;69.80;;;;;;5015234;28;20184;-86
2022/03/23 02:42:08;;;;;;;35.50;25.97;;;3.70;69.80;;;;;;5032853;28;20662;-87
2022/03/23 02:44:33;;;;;;;37.40;26.57;;;3.60;69.70;;;;;;5032901;28;20200;-86
2022/03/23 02:46:59;;;;;;;39.20;26.63;;;3.60;69.60;;;;;;5015368;28;20168;-86
2022/03/23 02:49:25;;;;;;;38.13;25.67;;;3.60;69.40;;;;;;5032824;28;20248;-86
2022/03/23 02:51:51;;;;;;;39.93;29.10;;;3.40;70.20;;;;;;5032803;28;20176;-86
2022/03/23 03:03:14;;;;;;;35.90;26.93;;;3.10;72.00;;;;;;5033000;28;20188;-86
2022/03/23 03:05:40;;;;;;;38.43;27.70;;;3.10;71.80;;;;;;5032537;28;20206;-87
2022/03/23 03:10:49;;;;;;;40.67;26.87;;;3.00;71.50;;;;;;5032977;28;20168;-86
2022/03/23 03:13:15;;;;;;;35.30;25.53;;;3.00;71.50;;;;;;5014898;28;20178;-86
2022/03/23 03:15:40;;;;;;;33.17;24.93;;;2.90;71.70;;;;;;5017403;28;20683;-86
2022/03/23 03:18:06;;;;;;;36.83;25.93;;;2.90;72.00;;;;;;5036393;28;20181;-86
2022/03/23 03:20:31;;;;;;;38.90;25.73;;;2.90;72.20;;;;;;5018595;28;20560;-86
2022/03/23 03:22:58;;;;;;;37.17;26.83;;;2.80;72.20;;;;;;5018548;28;20203;-86
2022/03/23 03:25:24;;;;;;;34.53;26.40;;;2.80;72.20;;;;;;5018518;28;20193;-86
2022/03/23 03:27:50;;;;;;;38.83;27.17;;;2.80;72.40;;;;;;5018501;28;20176;-86
2022/03/23 03:30:18;;;;;;;38.23;26.10;;;2.80;72.20;;;;;;5018450;28;20529;-86
2022/03/23 03:32:44;;;;;;;39.83;26.50;;;2.80;72.10;;;;;;5018255;28;20177;-87
2022/03/23 03:35:11;;;;;;;39.07;26.57;;;2.80;72.00;;;;;;5018274;28;20668;-86
2022/03/23 03:37:37;;;;;;;41.20;26.97;;;2.80;71.80;;;;;;5018383;28;20568;-86
2022/03/23 03:40:07;;;;;;;39.33;27.30;;;2.80;71.60;;;;;;5036044;28;20175;-86
2022/03/23 03:42:34;;;;;;;38.87;26.47;;;2.80;71.50;;;;;;5018097;28;20192;-86
2022/03/23 03:44:59;;;;;;;34.63;25.77;;;2.80;71.50;;;;;;5018026;28;20200;-86
2022/03/23 03:47:25;;;;;;;37.33;25.63;;;2.80;71.40;;;;;;5018047;28;20187;-86
2022/03/23 03:49:51;;;;;;;38.40;26.70;;;2.80;71.40;;;;;;5018825;28;20626;-86
2022/03/23 03:52:20;;;;;;;35.70;26.70;;;2.80;71.40;;;;;;5035671;28;20765;-86
2022/03/23 03:54:46;;;;;;;39.80;25.37;;;2.70;71.40;;;;;;5017991;28;20215;-86
2022/03/23 03:57:12;;;;;;;36.23;25.97;;;2.70;71.30;;;;;;5018017;28;20733;-86
2022/03/23 03:59:38;;;;;;;35.43;25.33;;;2.70;71.20;;;;;;5018265;28;20270;-87
2022/03/23 04:02:04;;;;;;;41.33;27.93;;;2.70;71.20;;;;;;5035820;28;20282;-86
2022/03/23 04:04:30;;;;;;;37.57;25.77;;;2.60;71.20;;;;;;5017720;28;20187;-86
2022/03/23 04:06:56;;;;;;;38.20;27.40;;;2.50;71.80;;;;;;5041605;22;20226;-88
2022/03/23 04:09:21;;;;;;;36.73;26.07;;;2.40;72.00;;;;;;5035884;28;20172;-88
2022/03/23 04:11:47;;;;;;;39.87;27.40;;;2.40;72.00;;;;;;5035903;28;20215;-87
2022/03/23 04:14:12;;;;;;;38.10;27.00;;;2.40;72.00;;;;;;5017900;28;20676;-89
2022/03/23 04:16:39;;;;;;;45.53;26.57;;;2.40;72.20;;;;;;5017897;28;20248;-88
2022/03/23 04:19:06;;;;;;;36.93;26.20;;;2.40;72.20;;;;;;5017884;28;20186;-88
2022/03/23 04:21:32;;;;;;;36.63;26.50;;;2.40;72.20;;;;;;5017986;28;20216;-89
2022/03/23 04:23:58;;;;;;;36.40;25.63;;;2.40;72.10;;;;;;5018002;28;20179;-89
2022/03/23 04:26:23;;;;;;;39.83;26.17;;;2.40;72.10;;;;;;5035400;28;20218;-89
2022/03/23 04:28:49;;;;;;;35.63;26.20;;;2.40;72.00;;;;;;5035724;28;20179;-88
2022/03/23 04:31:15;;;;;;;42.67;30.17;;;2.40;72.00;;;;;;5017858;28;20555;-89
2022/03/23 04:33:40;;;;;;;37.20;27.30;;;2.40;71.90;;;;;;5017810;28;20190;-88
2022/03/23 04:36:09;;;;;;;40.40;28.47;;;2.40;71.90;;;;;;5035343;28;20196;-89
2022/03/23 04:38:35;;;;;;;40.87;27.60;;;2.30;72.00;;;;;;5035388;28;20175;-88
2022/03/23 04:41:01;;;;;;;40.10;28.87;;;2.30;72.00;;;;;;5017488;28;20203;-89
2022/03/23 04:43:27;;;;;;;48.33;32.40;;;2.30;72.10;;;;;;5017413;28;20199;-89
2022/03/23 04:45:53;;;;;;;47.13;30.20;;;2.20;72.90;;;;;;5017190;28;20191;-89
2022/03/23 04:48:19;;;;;;;41.70;29.67;;;2.20;73.30;;;;;;5017354;28;20598;-88
2022/03/23 04:50:46;;;;;;;38.80;27.13;;;2.20;73.00;;;;;;5017233;28;20171;-88
2022/03/23 04:53:12;;;;;;;51.37;29.10;;;2.30;72.70;;;;;;5035104;28;20178;-88
2022/03/23 04:55:38;;;;;;;38.40;27.33;;;2.30;72.60;;;;;;5034816;28;20662;-89
2022/03/23 04:58:04;;;;;;;38.90;28.93;;;2.30;72.70;;;;;;5017086;28;20600;-89
2022/03/23 05:00:29;;;;;;;48.90;32.93;;;2.30;72.70;;;;;;5034866;28;20180;-89
2022/03/23 05:02:55;;;;;;;45.97;29.90;;;2.20;72.70;;;;;;5016885;28;20199;-88
2022/03/23 05:05:20;;;;;;;44.90;31.07;;;2.20;72.80;;;;;;5034611;28;20201;-88
2022/03/23 05:07:46;;;;;;;44.10;30.53;;;2.20;73.20;;;;;;5017271;28;20621;-89
2022/03/23 05:10:14;;;;;;;39.50;28.03;;;2.10;73.20;;;;;;5017521;28;20179;-88
2022/03/23 05:12:42;;;;;;;44.37;28.67;;;2.10;73.10;;;;;;5034666;28;20250;-89
2022/03/23 05:15:08;;;;;;;40.40;29.27;;;2.10;73.00;;;;;;5034724;28;20185;-88
2022/03/23 05:17:35;;;;;;;41.43;28.17;;;2.10;73.00;;;;;;5016754;28;20231;-88
2022/03/23 05:20:01;;;;;;;39.37;28.70;;;2.10;73.00;;;;;;5016709;28;20186;-90
2022/03/23 05:22:27;;;;;;;41.53;29.40;;;2.10;72.90;;;;;;5016767;28;20565;-88
2022/03/23 05:24:53;;;;;;;39.00;29.80;;;2.00;72.80;;;;;;5016717;28;20182;-88
2022/03/23 05:27:19;;;;;;;44.10;31.37;;;2.00;72.70;;;;;;5016788;28;20192;-88
2022/03/23 05:29:44;;;;;;;41.87;30.70;;;2.00;72.70;;;;;;5016690;28;20265;-87
2022/03/23 05:32:16;;;;;;;50.97;30.37;;;2.00;72.70;;;;;;5016977;28;20546;-87
2022/03/23 05:34:45;;;;;;;44.77;30.67;;;2.10;72.60;;;;;;5034482;28;20160;-89
2022/03/23 05:37:11;;;;;;;47.80;29.87;;;2.00;72.70;;;;;;5015637;28;20200;-88
2022/03/23 05:39:38;;;;;;;41.47;30.90;;;2.00;72.70;;;;;;5033886;28;20179;-88
2022/03/23 05:42:04;;;;;;;43.93;30.50;;;2.10;72.80;;;;;;5016329;28;20222;-88
2022/03/23 05:44:29;;;;;;;44.90;31.60;;;2.10;72.80;;;;;;5016334;28;20186;-88
2022/03/23 05:46:55;;;;;;;41.67;30.63;;;2.10;72.80;;;;;;5016596;28;20211;-88
2022/03/23 05:49:21;;;;;;;46.97;30.23;;;2.10;72.80;;;;;;5016460;28;20171;-88
2022/03/23 05:51:46;;;;;;;45.53;31.00;;;2.10;72.80;;;;;;5016241;28;20255;-89
2022/03/23 05:54:12;;;;;;;44.87;30.73;;;2.10;72.70;;;;;;5033740;28;20269;-89
2022/03/23 05:56:37;;;;;;;59.80;29.53;;;2.10;72.80;;;;;;5016129;28;20357;-88
2022/03/23 05:59:03;;;;;;;46.13;29.60;;;2.20;72.80;;;;;;5016231;28;20176;-88
2022/03/23 06:01:28;;;;;;;42.73;31.23;;;2.20;72.70;;;;;;5033852;28;20252;-88
2022/03/23 06:03:54;;;;;;;47.67;31.43;;;2.20;72.80;;;;;;5016289;28;20586;-88
2022/03/23 06:06:19;;;;;;;46.43;32.40;;;2.20;73.00;;;;;;5016098;28;20311;-88
2022/03/23 06:08:45;;;;;;;44.93;31.60;;;2.20;73.10;;;;;;5033686;28;20202;-89
2022/03/23 06:11:11;;;;;;;42.53;31.57;;;2.20;73.20;;;;;;5016214;28;20200;-88
2022/03/23 06:13:36;;;;;;;44.57;30.50;;;2.30;73.20;;;;;;5016081;28;20188;-88
2022/03/23 06:16:02;;;;;;;48.70;30.90;;;2.30;73.40;;;;;;5015880;28;20204;-89
2022/03/23 06:18:28;;;;;;;43.80;31.47;;;2.30;73.50;;;;;;5015697;28;20191;-89
2022/03/23 06:20:53;;;;;;;45.33;31.13;;;2.30;73.60;;;;;;5015862;28;20186;-88
2022/03/23 06:23:19;;;;;;;47.60;31.07;;;2.30;73.60;;;;;;5015765;28;20254;-89
2022/03/23 06:25:45;;;;;;;46.87;30.80;;;2.40;73.60;;;;;;5016113;28;20196;-87
2022/03/23 06:28:10;;;;;;;51.60;29.80;;;2.40;73.70;;;;;;5016082;28;20661;-86
2022/03/23 06:30:36;;;;;;;43.57;29.80;;;2.50;73.60;;;;;;5015784;28;20175;-90
2022/03/23 06:33:02;;;;;;;45.57;31.00;;;2.50;73.60;;;;;;5015763;28;20180;-90
2022/03/23 06:35:29;;;;;;;45.20;31.53;;;2.60;73.50;;;;;;5016060;28;20198;-89
2022/03/23 06:37:54;;;;;;;45.23;30.57;;;2.60;73.60;;;;;;5015884;28;20173;-89
2022/03/23 06:40:21;;;;;;;46.40;31.23;;;2.70;73.80;;;;;;5015652;28;20202;-89
2022/03/23 06:42:46;;;;;;;43.20;32.00;;;2.70;74.00;;;;;;5015745;28;20203;-91
2022/03/23 06:45:12;;;;;;;52.07;33.37;;;2.80;74.40;;;;;;5015553;28;20189;-88
2022/03/23 06:47:37;;;;;;;50.80;35.53;;;2.90;74.60;;;;;;5015333;28;20196;-89
2022/03/23 06:50:04;;;;;;;53.20;36.10;;;3.10;76.10;;;;;;5017091;28;20606;-88
2022/03/23 06:52:29;;;;;;;54.00;37.13;;;3.30;76.90;;;;;;5019499;28;20193;-87
2022/03/23 06:54:55;;;;;;;50.00;36.90;;;3.50;77.40;;;;;;5019559;28;20549;-88
2022/03/23 06:57:20;;;;;;;51.70;35.13;;;3.70;78.10;;;;;;5019110;28;20204;-89
2022/03/23 06:59:46;;;;;;;60.63;37.33;;;3.80;78.50;;;;;;5019296;28;20184;-88
2022/03/23 07:02:11;;;;;;;51.00;37.23;;;4.00;78.40;;;;;;5019365;28;20626;-86
2022/03/23 07:04:37;;;;;;;53.57;37.30;;;4.10;78.70;;;;;;5019255;28;20590;-88
2022/03/23 07:07:03;;;;;;;55.73;37.93;;;4.30;79.40;;;;;;5037037;28;20234;-89
2022/03/23 07:09:31;;;;;;;53.30;39.47;;;4.40;79.60;;;;;;5019304;28;20180;-88
2022/03/23 07:12:01;;;;;;;58.37;39.30;;;4.60;79.80;;;;;;5018890;28;20184;-89
2022/03/23 07:14:28;;;;;;;55.40;38.60;;;4.80;79.50;;;;;;5018846;28;20176;-90
2022/03/23 07:16:54;;;;;;;54.83;40.10;;;4.90;78.90;;;;;;5019007;28;20678;-90
2022/03/23 07:19:20;;;;;;;60.83;40.87;;;4.90;79.00;;;;;;5018761;28;20187;-89
2022/03/23 07:21:45;;;;;;;61.13;37.80;;;4.90;78.90;;;;;;5018660;28;20200;-90
2022/03/23 07:24:11;;;;;;;52.73;39.47;;;5.00;78.90;;;;;;5019566;28;20176;-88
2022/03/23 07:26:37;;;;;;;50.07;37.97;;;5.20;78.50;;;;;;5019585;28;20250;-88
2022/03/23 07:29:03;;;;;;;56.53;38.30;;;5.30;77.40;;;;;;5018825;28;20328;-91
2022/03/23 07:31:29;;;;;;;53.03;38.63;;;5.40;76.00;;;;;;5019073;28;20206;-91
2022/03/23 07:33:54;;;;;;;56.07;38.23;;;5.60;75.90;;;;;;5018731;28;20279;-90
2022/03/23 07:36:20;;;;;;;49.87;34.83;;;5.80;74.30;;;;;;5018769;28;20200;-87
2022/03/23 07:38:45;;;;;;;56.03;38.73;;;5.90;74.10;;;;;;5018596;28;20196;-84
2022/03/23 07:41:11;;;;;;;55.03;37.90;;;6.00;73.80;;;;;;5036254;28;20202;-85
2022/03/23 07:43:36;;;;;;;51.70;37.67;;;6.30;73.50;;;;;;5036314;28;20230;-85
2022/03/23 07:46:02;;;;;;;51.40;37.27;;;6.40;73.40;;;;;;5018490;28;20265;-88
2022/03/23 07:48:27;;;;;;;47.13;36.30;;;6.50;73.10;;;;;;5018855;28;20183;-87
2022/03/23 07:50:53;;;;;;;48.67;37.20;;;6.70;72.60;;;;;;5036695;28;20176;-88
2022/03/23 07:53:19;;;;;;;52.30;36.63;;;6.80;73.00;;;;;;5018891;28;20184;-87
2022/03/23 07:55:45;;;;;;;54.80;38.20;;;7.00;72.50;;;;;;5018537;28;20246;-89
2022/03/23 07:58:11;;;;;;;46.17;34.40;;;7.10;71.40;;;;;;5019016;28;20238;-89
2022/03/23 08:00:38;;;;;;;49.53;35.13;;;7.30;70.20;;;;;;5036189;28;20264;-87
2022/03/23 08:03:04;;;;;;;51.37;34.67;;;7.50;69.70;;;;;;5020434;28;20211;-87
2022/03/23 08:05:31;;;;;;;45.10;33.13;;;7.60;68.40;;;;;;5019563;28;20223;-87
2022/03/23 08:07:57;;;;;;;45.97;33.10;;;7.80;68.80;;;;;;5019612;28;20173;-86
2022/03/23 08:10:23;;;;;;;49.47;35.67;;;7.80;68.00;;;;;;5019257;28;20180;-86
2022/03/23 08:12:48;;;;;;;51.53;35.33;;;8.00;68.20;;;;;;5036026;28;20180;-87
2022/03/23 08:15:14;;;;;;;47.63;33.83;;;8.20;67.90;;;;;;5017990;28;20259;-89
2022/03/23 08:17:39;;;;;;;45.23;32.63;;;8.30;67.70;;;;;;5018166;28;20173;-88
2022/03/23 08:22:54;;;;;;;43.60;31.13;;;8.60;64.20;;;;;;5036028;28;20200;-89
2022/03/23 08:25:19;;;;;;;44.23;31.20;;;8.70;63.60;;;;;;5020504;28;20177;-88
2022/03/23 08:27:45;;;;;;;46.03;32.97;;;8.80;62.60;;;;;;5037402;28;20490;-87
2022/03/23 08:30:11;;;;;;;51.13;32.13;;;9.00;63.60;;;;;;5039434;28;20161;-89
2022/03/23 08:32:37;;;;;;;43.77;31.57;;;9.20;62.80;;;;;;5020881;28;20234;-88
2022/03/23 08:35:03;;;;;;;47.17;31.77;;;9.30;61.70;;;;;;5020306;28;20247;-88
2022/03/23 08:37:29;;;;;;;42.07;31.50;;;9.40;62.30;;;;;;5017981;28;20176;-88
2022/03/23 08:39:55;;;;;;;44.07;31.50;;;9.60;61.70;;;;;;5035649;28;20169;-88
2022/03/23 08:42:21;;;;;;;50.43;30.03;;;9.80;59.90;;;;;;5017738;28;20207;-88
2022/03/23 08:44:47;;;;;;;42.13;29.00;;;9.90;60.30;;;;;;5018926;28;20255;-87
2022/03/23 08:47:13;;;;;;;48.07;31.57;;;9.90;59.40;;;;;;5018175;28;20698;-89
2022/03/23 08:49:39;;;;;;;47.70;30.93;;;10.00;59.80;;;;;;5036398;28;20170;-88
2022/03/23 08:52:06;;;;;;;39.83;28.43;;;10.20;59.20;;;;;;5036971;28;20176;-88
2022/03/23 08:54:32;;;;;;;44.53;29.33;;;10.40;57.30;;;;;;5018051;28;20280;-87
2022/03/23 08:56:58;;;;;;;40.17;28.60;;;10.60;55.90;;;;;;5036172;28;20219;-88
2022/03/23 08:59:23;;;;;;;44.63;29.77;;;10.80;53.60;;;;;;5017795;28;20234;-88
2022/03/23 09:01:49;;;;;;;40.57;28.53;;;10.80;53.60;;;;;;5035390;28;20204;-87
2022/03/23 09:04:15;;;;;;;36.83;28.10;;;11.00;55.10;;;;;;5035964;28;20647;-88
2022/03/23 09:06:41;;;;;;;37.33;26.43;;;11.10;53.40;;;;;;5017321;28;20208;-87
2022/03/23 09:09:06;;;;;;;37.27;28.07;;;11.30;51.80;;;;;;5017159;28;20179;-89
2022/03/23 09:11:32;;;;;;;42.57;28.33;;;11.50;52.60;;;;;;5016821;28;20176;-89
2022/03/23 09:13:58;;;;;;;39.33;27.27;;;11.60;52.00;;;;;;5033915;28;20649;-89
2022/03/23 09:16:24;;;;;;;39.40;27.07;;;11.70;50.70;;;;;;5016900;28;20192;-89
2022/03/23 09:18:49;;;;;;;43.07;28.47;;;11.80;49.40;;;;;;5017440;28;20177;-87
2022/03/23 09:21:16;;;;;;;39.67;26.60;;;11.90;50.30;;;;;;5035823;28;20520;-87
2022/03/23 09:23:41;;;;;;;39.60;26.03;;;12.10;47.60;;;;;;5034903;28;20203;-87
2022/03/23 09:26:09;;;;;;;36.23;25.20;;;12.40;42.90;;;;;;5035266;28;20189;-87
2022/03/23 09:28:35;;;;;;;29.20;22.93;;;12.50;43.10;;;;;;5034995;28;20180;-88
2022/03/23 09:31:00;;;;;;;39.17;22.93;;;12.70;42.90;;;;;;5034902;28;20185;-88
2022/03/23 09:33:27;;;;;;;35.10;22.70;;;12.70;43.30;;;;;;5016947;28;20188;-87
2022/03/23 09:35:53;;;;;;;27.07;21.50;;;12.90;43.20;;;;;;5016580;28;20203;-88
2022/03/23 09:38:19;;;;;;;28.83;22.30;;;13.10;42.90;;;;;;5034520;28;20177;-87
2022/03/23 09:40:49;;;;;;;29.77;20.63;;;13.20;41.70;;;;;;5034322;28;20180;-89
2022/03/23 09:43:19;;;;;;;26.80;20.00;;;13.50;42.10;;;;;;5016714;28;20196;-87
2022/03/23 09:45:47;;;;;;;27.30;20.67;;;13.70;40.20;;;;;;5016538;28;20232;-88
2022/03/23 09:48:24;;;;;;;25.37;18.90;;;13.80;39.90;;;;;;5034045;28;20175;-87
2022/03/23 09:50:53;;;;;;;28.73;19.53;;;14.00;37.70;;;;;;5016300;28;20199;-87
2022/03/23 09:53:24;;;;;;;28.63;18.30;;;14.20;37.60;;;;;;5016478;28;20174;-88
2022/03/23 09:55:51;;;;;;;27.40;18.00;;;14.20;36.90;;;;;;5016522;28;20686;-87
2022/03/23 09:58:17;;;;;;;31.60;19.20;;;14.40;36.50;;;;;;5016039;28;20176;-88
2022/03/23 10:00:44;;;;;;;27.67;20.03;;;14.50;37.80;;;;;;5016513;28;20230;-88
2022/03/23 10:03:09;;;;;;;25.50;20.33;;;14.70;38.30;;;;;;5015996;28;20617;-85
2022/03/23 10:08:28;;;;;;;25.53;20.23;;;14.90;37.20;;;;;;4992855;28;20221;-90
2022/03/23 10:11:12;;;;;;;30.50;19.63;;;15.00;34.60;;;;;;4993529;28;20165;-90
2022/03/23 10:14:16;;;;;;;24.70;18.90;;;15.20;35.00;;;;;;4992921;28;20173;-90
2022/03/23 10:17:05;;;;;;;24.17;19.57;;;15.20;35.90;;;;;;4963303;28;20209;-90
2022/03/23 10:19:31;;;;;;;27.43;19.73;;;15.30;34.40;;;;;;4996162;28;20185;-91
2022/03/23 10:22:08;;;;;;;23.27;19.23;;;15.50;35.10;;;;;;5002670;28;20213;-92
2022/03/23 10:24:35;;;;;;;27.23;18.60;;;15.60;34.60;;;;;;4995779;28;20224;-90
2022/03/23 10:27:06;;;;;;;28.70;20.67;;;15.50;33.80;;;;;;4992645;28;20206;-91
2022/03/23 10:29:38;;;;;;;36.10;20.00;;;15.70;34.90;;;;;;4992926;28;20178;-90
2022/03/23 10:32:08;;;;;;;26.73;18.33;;;15.80;34.20;;;;;;4992754;28;20170;-91
2022/03/23 10:35:01;;;;;;;26.47;18.60;;;15.80;35.00;;;;;;4993083;28;20201;-91
2022/03/23 10:37:31;;;;;;;25.73;18.83;;;15.90;34.70;;;;;;4990092;28;20702;-90
2022/03/23 10:39:59;;;;;;;25.65;18.88;;;16.10;34.30;;;;;;4992913;28;20174;-91
2022/03/23 10:42:27;;;;;;;30.00;19.47;;;16.10;33.50;;;;;;4992946;28;20868;-90
2022/03/23 10:45:12;;;;;;;29.85;20.48;;;16.20;34.40;;;;;;4992860;28;20626;-90
2022/03/23 10:47:39;;;;;;;33.22;18.95;;;16.30;32.10;;;;;;4992839;28;20551;-91
2022/03/23 10:50:11;;;;;;;28.17;21.95;;;16.40;35.00;;;;;;4993107;28;20272;-91
2022/03/23 10:52:58;;;;;;;29.90;23.30;;;16.30;36.20;;;;;;4992593;28;20170;-91
2022/03/23 10:55:26;;;;;;;31.02;24.23;;;16.40;36.90;;;;;;4992648;28;20192;-91
2022/03/23 10:58:02;;;;;;;33.47;24.95;;;16.30;41.80;;;;;;4992561;28;20201;-91
2022/03/23 11:00:37;;;;;;;38.17;25.17;;;16.20;41.80;;;;;;4992688;28;20196;-91
2022/03/23 11:03:05;;;;;;;34.60;25.35;;;16.20;39.80;;;;;;4992570;28;20220;-91
2022/03/23 11:05:32;;;;;;;32.88;24.42;;;16.30;40.00;;;;;;4992594;28;20201;-91
2022/03/23 11:08:24;;;;;;;33.35;25.33;;;16.40;41.00;;;;;;4992419;28;20284;-91
2022/03/23 11:16:27;;;;;;;33.95;24.77;;;16.90;40.50;;;;;;4994127;28;20236;-91
2022/03/23 11:19:19;;;;;;;33.70;23.38;;;16.70;38.10;;;;;;4992401;28;20206;-91
2022/03/23 11:22:12;;;;;;;33.13;24.10;;;16.70;37.10;;;;;;4986039;28;20186;-91
2022/03/23 11:24:40;;;;;;;37.58;24.60;;;16.90;36.60;;;;;;4992936;28;20217;-91
2022/03/23 11:27:08;;;;;;;34.97;24.23;;;17.20;38.50;;;;;;4992310;28;20190;-91
2022/03/23 11:29:36;;;;;;;32.58;24.23;;;17.40;39.00;;;;;;4992467;28;20210;-91
2022/03/23 11:32:06;;;;;;;29.50;24.52;;;17.40;38.60;;;;;;4992644;28;20185;-91
2022/03/23 11:34:35;;;;;;;31.77;23.77;;;17.50;38.30;;;;;;4992260;28;20216;-91
2022/03/23 11:37:03;;;;;;;35.33;25.55;;;17.30;38.10;;;;;;4995382;28;20204;-90
2022/03/23 11:39:30;;;;;;;31.65;24.90;;;17.30;36.80;;;;;;4997239;28;20178;-91
2022/03/23 11:41:58;;;;;;;32.72;24.45;;;17.20;37.40;;;;;;4995621;28;20206;-90
2022/03/23 11:44:25;;;;;;;32.30;23.95;;;17.60;37.40;;;;;;4995961;28;20178;-91
2022/03/23 11:46:55;;;;;;;33.83;22.90;;;17.70;35.80;;;;;;4995738;28;20194;-91
2022/03/23 11:49:31;;;;;;;28.77;22.85;;;17.20;37.80;;;;;;4996141;28;20193;-91
2022/03/23 11:52:07;;;;;;;28.85;22.25;;;17.20;37.40;;;;;;4997770;28;20170;-91
2022/03/23 11:58:01;;;;;;;38.30;24.55;;;17.30;36.30;;;;;;4996857;28;20236;-91
2022/03/23 12:00:28;;;;;;;29.92;22.55;;;17.30;35.40;;;;;;4974420;28;20190;-90
2022/03/23 12:02:54;;;;;;;30.30;23.05;;;17.50;35.40;;;;;;4995614;28;20225;-90
2022/03/23 12:05:29;;;;;;;36.92;23.02;;;17.90;35.80;;;;;;4995575;28;20178;-90
2022/03/23 12:07:55;;;;;;;30.88;22.40;;;18.20;33.90;;;;;;4995474;28;20213;-90
2022/03/23 12:10:23;;;;;;;27.38;21.48;;;17.80;33.80;;;;;;4995241;28;20224;-90
2022/03/23 12:12:48;;;;;;;29.73;21.92;;;17.80;35.30;;;;;;4995825;28;20617;-90
2022/03/23 12:15:23;;;;;;;31.90;22.88;;;18.10;34.60;;;;;;4995325;28;20217;-91
2022/03/23 12:17:54;;;;;;;34.83;23.75;;;18.40;34.90;;;;;;4994968;28;20205;-90
2022/03/23 12:20:46;;;;;;;31.63;22.77;;;18.30;34.10;;;;;;4995039;28;20305;-90
2022/03/23 12:23:14;;;;;;;32.67;22.60;;;18.20;33.20;;;;;;4995460;28;20194;-91
2022/03/23 12:25:55;;;;;;;30.00;22.27;;;18.20;32.90;;;;;;4994879;28;20181;-91
2022/03/23 12:28:36;;;;;;;33.28;22.38;;;18.20;34.10;;;;;;4994726;28;20170;-90
2022/03/23 12:31:09;;;;;;;39.35;21.90;;;18.30;34.50;;;;;;4994749;28;20655;-91
2022/03/23 12:33:57;;;;;;;30.95;21.08;;;19.00;34.00;;;;;;4994884;28;20170;-91
2022/03/23 12:36:28;;;;;;;25.45;19.27;;;18.60;32.90;;;;;;5010947;28;20695;-91
2022/03/23 12:38:58;;;;;;;32.05;22.55;;;18.40;33.70;;;;;;4995049;28;20719;-91
2022/03/23 12:41:45;;;;;;;26.50;21.20;;;17.90;34.40;;;;;;4994847;28;20178;-91
2022/03/23 12:44:12;;;;;;;31.98;21.98;;;18.10;34.80;;;;;;4994545;28;20229;-91
2022/03/23 12:46:44;;;;;;;29.98;21.65;;;18.50;33.90;;;;;;4994565;28;20284;-91
2022/03/23 12:57:53;;;;;;;27.48;19.98;;;18.90;31.80;;;;;;4996097;28;20564;-91
2022/03/23 13:00:40;;;;;;;38.30;19.35;;;18.70;32.10;;;;;;4994551;28;20529;-91
2022/03/23 13:03:05;;;;;;;37.47;20.17;;;18.30;33.20;;;;;;4994160;28;20212;-90
2022/03/23 13:05:52;;;;;;;33.20;20.63;;;18.30;33.80;;;;;;4994078;28;20182;-89
2022/03/23 13:08:33;;;;;;;27.20;19.10;;;18.30;32.30;;;;;;4983762;28;20194;-91
2022/03/23 13:11:09;;;;;;;34.28;20.33;;;18.30;32.70;;;;;;4994739;28;20177;-91